Time;durP1;ratioP1;P1;durP2;ratioP2;P2;SDS_P1;SDS_P2;PMS_P1;PMS_P2;Temp;Humidity;BMP_temperature;BMP_pressure;BME280_temperature;BME280_humidity;BME280_pressure;Samples;Min_cycle;Max_cycle;Signal;HPM_P1;HPM_P2
2022/04/21 00:00:46;;;;;;;;;;;;;;;4.14;74.81;98281.70;108016;1279;22597;-71
2022/04/21 00:03:13;;;;;;;;;;;;;;;4.13;74.97;98280.73;108024;1279;22543;-71
2022/04/21 00:05:40;;;;;;;;;;;;;;;4.11;74.92;98282.52;108063;1279;22596;-71
2022/04/21 00:08:08;;;;;;;;;;;;;;;4.09;74.61;98283.14;108094;1279;22499;-73
2022/04/21 00:10:35;;;;;;;;;;;;;;;4.06;74.27;98282.39;108339;1279;22541;-71
2022/04/21 00:13:02;;;;;;;;;;;;;;;4.04;74.64;98281.27;108331;1279;25231;-71
2022/04/21 00:15:28;;;;;;;;;;;;;;;4.05;74.09;98278.14;108328;1279;22524;-71
2022/04/21 00:17:57;;;;;;;;;;;;;;;4.05;74.21;98279.17;108315;1279;22544;-71
2022/04/21 00:20:24;;;;;;;;;;;;;;;4.06;74.75;98281.88;108338;1279;22594;-71
2022/04/21 00:25:37;;;;;;;;;;;;;;;4.06;75.41;98285.50;108343;1279;23367;-71
2022/04/21 00:28:06;;;;;;;;;;;;;;;4.07;75.25;98284.94;108346;1279;22646;-71
2022/04/21 00:30:33;;;;;;;;;;;;;;;4.08;75.35;98283.00;108331;1279;22531;-71
2022/04/21 00:33:00;;;;;;;;;;;;;;;4.09;75.07;98283.52;108315;1279;22534;-71
2022/04/21 00:35:27;;;;;;;;;;;;;;;4.08;74.78;98283.02;108348;1279;22690;-71
2022/04/21 00:37:55;;;;;;;;;;;;;;;4.06;75.08;98286.01;108332;1279;22521;-71
2022/04/21 00:40:26;;;;;;;;;;;;;;;4.06;75.50;98287.77;108351;1279;25412;-71
2022/04/21 00:42:54;;;;;;;;;;;;;;;4.05;75.67;98288.66;108297;1279;22534;-71
2022/04/21 00:45:21;;;;;;;;;;;;;;;4.04;75.70;98291.62;108318;1279;22557;-71
2022/04/21 00:47:49;;;;;;;;;;;;;;;4.02;75.42;98289.64;108327;1279;22536;-72
2022/04/21 00:50:15;;;;;;;;;;;;;;;4.03;75.59;98285.63;108326;1279;22610;-71
2022/04/21 00:52:43;;;;;;;;;;;;;;;4.06;74.60;98285.33;108339;1279;22591;-71
2022/04/21 00:55:10;;;;;;;;;;;;;;;4.08;74.52;98289.90;108329;1279;22514;-71
2022/04/21 00:57:38;;;;;;;;;;;;;;;4.10;74.92;98289.48;108329;1279;22516;-72
2022/04/21 01:00:06;;;;;;;;;;;;;;;4.11;75.19;98289.08;108326;1279;22540;-71
2022/04/21 01:05:29;;;;;;;;;;;;;;;4.12;75.79;98288.34;108031;1279;24526;-71
2022/04/21 01:07:57;;;;;;;;;;;;;;;4.13;75.77;98289.15;108055;1279;22544;-72
2022/04/21 01:10:24;;;;;;;;;;;;;;;4.14;75.51;98290.00;108024;1279;22632;-71
2022/04/21 01:12:51;;;;;;;;;;;;;;;4.12;75.59;98286.96;108056;1279;22531;-71
2022/04/21 01:15:18;;;;;;;;;;;;;;;4.11;74.84;98285.84;108026;1279;22597;-71
2022/04/21 01:17:48;;;;;;;;;;;;;;;4.10;74.67;98284.50;108040;1279;22518;-71
2022/04/21 01:20:16;;;;;;;;;;;;;;;4.09;74.56;98291.08;108003;1279;22517;-70
2022/04/21 01:22:42;;;;;;;;;;;;;;;4.07;74.93;98294.24;108004;1279;22549;-71
2022/04/21 01:25:10;;;;;;;;;;;;;;;4.05;75.58;98293.31;108022;1279;22695;-70
2022/04/21 01:27:38;;;;;;;;;;;;;;;4.01;76.20;98294.73;108044;1279;23343;-70
2022/04/21 01:30:06;;;;;;;;;;;;;;;3.97;75.89;98296.60;108045;1279;22615;-70
2022/04/21 01:32:35;;;;;;;;;;;;;;;3.93;76.09;98297.84;108041;1279;22597;-71
2022/04/21 01:35:04;;;;;;;;;;;;;;;3.90;75.89;98293.14;108035;1279;22554;-71
2022/04/21 01:43:02;;;;;;;;;;;;;;;3.87;75.44;98289.29;108031;1279;22606;-71
2022/04/21 01:45:36;;;;;;;;;;;;;;;3.90;75.29;98283.98;104934;1310;544156;-70
2022/04/21 01:48:03;;;;;;;;;;;;;;;3.88;75.77;98282.68;107836;1284;22552;-70
2022/04/21 01:50:30;;;;;;;;;;;;;;;3.87;76.27;98279.27;107594;1284;22509;-70
2022/04/21 01:52:58;;;;;;;;;;;;;;;3.86;76.59;98280.21;107844;1284;25225;-71
2022/04/21 01:55:25;;;;;;;;;;;;;;;3.83;76.60;98279.31;107850;1284;22696;-70
2022/04/21 01:57:52;;;;;;;;;;;;;;;3.80;76.36;98281.15;107810;1284;22546;-70
2022/04/21 02:00:20;;;;;;;;;;;;;;;3.77;76.31;98276.46;107743;1281;235823;-70
2022/04/21 02:02:47;;;;;;;;;;;;;;;3.75;76.05;98278.47;107959;1280;22515;-70
2022/04/21 02:05:14;;;;;;;;;;;;;;;3.78;76.04;98274.88;108038;1280;24346;-71
2022/04/21 02:07:42;;;;;;;;;;;;;;;3.79;76.26;98270.17;107963;1281;22700;-70
2022/04/21 02:10:09;;;;;;;;;;;;;;;3.80;76.75;98266.84;108006;1280;22517;-70
2022/04/21 02:12:35;;;;;;;;;;;;;;;3.80;77.44;98268.23;108339;1274;22547;-70
2022/04/21 02:15:02;;;;;;;;;;;;;;;3.79;77.39;98267.91;108380;1274;22534;-70
2022/04/21 02:17:31;;;;;;;;;;;;;;;3.78;77.13;98267.61;108350;1274;25293;-71
2022/04/21 02:19:59;;;;;;;;;;;;;;;3.79;77.18;98273.28;108383;1274;22536;-70
2022/04/21 02:22:26;;;;;;;;;;;;;;;3.80;76.88;98274.62;108309;1274;22515;-70
2022/04/21 02:24:53;;;;;;;;;;;;;;;3.80;76.69;98274.95;108395;1274;22555;-70
2022/04/21 02:27:20;;;;;;;;;;;;;;;3.82;76.34;98273.66;108361;1274;22569;-71
2022/04/21 02:29:48;;;;;;;;;;;;;;;3.85;76.12;98268.01;108378;1274;25261;-70
2022/04/21 02:32:15;;;;;;;;;;;;;;;3.85;76.28;98272.01;108319;1274;25396;-70
2022/04/21 02:34:42;;;;;;;;;;;;;;;3.84;76.89;98269.62;108204;1274;22524;-71
2022/04/21 02:37:09;;;;;;;;;;;;;;;3.83;77.20;98275.55;108301;1274;23308;-70
2022/04/21 02:39:36;;;;;;;;;;;;;;;3.80;77.04;98277.21;108312;1274;22524;-71
2022/04/21 02:42:04;;;;;;;;;;;;;;;3.79;77.14;98278.25;108329;1274;22820;-71
2022/04/21 02:44:32;;;;;;;;;;;;;;;3.78;77.19;98281.90;108332;1274;22746;-73
2022/04/21 02:46:59;;;;;;;;;;;;;;;3.78;77.29;98281.24;108270;1274;22648;-73
2022/04/21 02:49:26;;;;;;;;;;;;;;;3.77;76.88;98275.43;108313;1274;24130;-71
2022/04/21 02:51:53;;;;;;;;;;;;;;;3.75;76.73;98271.91;108322;1274;24463;-71
2022/04/21 02:57:21;;;;;;;;;;;;;;;3.78;76.17;98273.13;108285;1274;22534;-71
2022/04/21 02:59:53;;;;;;;;;;;;;;;3.81;76.38;98277.86;108306;1274;22706;-71
2022/04/21 03:02:21;;;;;;;;;;;;;;;3.81;76.69;98277.70;108294;1274;22573;-71
2022/04/21 03:04:49;;;;;;;;;;;;;;;3.79;76.94;98280.70;108258;1274;25228;-71
2022/04/21 03:07:17;;;;;;;;;;;;;;;3.77;76.88;98275.75;108285;1274;22582;-71
2022/04/21 03:09:44;;;;;;;;;;;;;;;3.76;76.73;98273.23;108274;1274;22564;-71
2022/04/21 03:12:11;;;;;;;;;;;;;;;3.73;76.45;98269.23;108258;1274;23486;-72
2022/04/21 03:14:39;;;;;;;;;;;;;;;3.70;76.66;98274.19;108281;1274;22665;-71
2022/04/21 03:17:06;;;;;;;;;;;;;;;3.66;76.81;98270.73;108439;1272;22572;-73
2022/04/21 03:19:34;;;;;;;;;;;;;;;3.66;76.38;98266.98;108285;1274;22767;-72
2022/04/21 03:24:46;;;;;;;;;;;;;;;3.68;76.36;98259.81;108296;1274;22533;-71
2022/04/21 03:27:13;;;;;;;;;;;;;;;3.67;76.63;98255.00;108304;1274;22531;-71
2022/04/21 03:29:40;;;;;;;;;;;;;;;3.65;77.11;98258.55;108320;1274;22682;-71
2022/04/21 03:32:09;;;;;;;;;;;;;;;3.62;77.24;98255.56;108314;1274;22520;-71
2022/04/21 03:34:40;;;;;;;;;;;;;;;3.62;77.15;98259.40;108317;1274;22516;-70
2022/04/21 03:37:07;;;;;;;;;;;;;;;3.60;77.01;98263.94;108320;1274;22647;-72
2022/04/21 03:39:36;;;;;;;;;;;;;;;3.58;76.81;98268.69;108260;1274;25496;-71
2022/04/21 03:42:03;;;;;;;;;;;;;;;3.56;76.66;98267.92;108318;1274;22597;-70
2022/04/21 03:44:30;;;;;;;;;;;;;;;3.54;77.09;98263.52;108357;1274;22531;-71
2022/04/21 03:46:58;;;;;;;;;;;;;;;3.52;77.08;98257.58;108323;1274;22733;-71
2022/04/21 03:49:28;;;;;;;;;;;;;;;3.50;77.26;98258.00;108348;1274;22686;-71
2022/04/21 03:51:55;;;;;;;;;;;;;;;3.47;77.13;98258.52;108295;1274;23172;-70
2022/04/21 03:54:23;;;;;;;;;;;;;;;3.44;76.32;98261.36;108512;1274;22533;-71
2022/04/21 03:56:50;;;;;;;;;;;;;;;3.44;75.91;98256.89;108315;1274;22518;-70
2022/04/21 03:59:19;;;;;;;;;;;;;;;3.41;76.09;98257.50;108353;1274;22544;-70
2022/04/21 04:01:46;;;;;;;;;;;;;;;3.39;76.42;98257.81;108319;1274;22649;-70
2022/04/21 04:04:13;;;;;;;;;;;;;;;3.34;76.70;98261.59;108311;1274;22527;-71
2022/04/21 04:12:11;;;;;;;;;;;;;;;3.27;76.78;98266.05;108314;1274;22622;-71
2022/04/21 04:14:39;;;;;;;;;;;;;;;3.24;76.93;98260.97;108309;1274;22606;-70
2022/04/21 04:17:06;;;;;;;;;;;;;;;3.25;76.97;98260.95;108290;1274;22611;-71
2022/04/21 04:19:33;;;;;;;;;;;;;;;3.26;76.33;98264.02;108296;1274;25338;-71
2022/04/21 04:22:01;;;;;;;;;;;;;;;3.29;76.27;98265.42;108319;1274;22640;-71
2022/04/21 04:24:28;;;;;;;;;;;;;;;3.35;76.12;98268.95;108315;1274;23201;-70
2022/04/21 04:26:55;;;;;;;;;;;;;;;3.42;76.72;98271.60;108282;1274;22596;-70
2022/04/21 04:29:22;;;;;;;;;;;;;;;3.48;77.12;98284.64;108285;1274;25379;-71
2022/04/21 04:31:53;;;;;;;;;;;;;;;3.51;77.48;98286.16;108343;1274;22534;-71
2022/04/21 04:34:20;;;;;;;;;;;;;;;3.56;77.08;98284.45;108321;1274;22552;-71
2022/04/21 04:36:47;;;;;;;;;;;;;;;3.60;77.17;98281.33;108325;1274;22584;-71
2022/04/21 04:39:14;;;;;;;;;;;;;;;3.64;77.07;98285.30;108292;1274;22565;-71
2022/04/21 04:44:26;;;;;;;;;;;;;;;3.77;77.03;98281.81;108288;1274;22659;-71
2022/04/21 04:46:54;;;;;;;;;;;;;;;3.82;76.72;98280.56;108311;1274;22579;-71
2022/04/21 04:49:21;;;;;;;;;;;;;;;3.87;76.57;98277.25;108306;1274;22551;-71
2022/04/21 04:51:48;;;;;;;;;;;;;;;3.92;76.65;98277.89;108281;1274;22573;-71
2022/04/21 04:54:15;;;;;;;;;;;;;;;3.97;76.76;98279.34;108300;1274;22496;-71
2022/04/21 04:56:43;;;;;;;;;;;;;;;4.04;76.37;98277.35;108264;1274;22576;-71
2022/04/21 04:59:11;;;;;;;;;;;;;;;4.11;76.23;98273.90;108314;1274;22523;-71
2022/04/21 05:01:41;;;;;;;;;;;;;;;4.23;76.12;98275.64;108326;1274;22509;-71
2022/04/21 05:04:12;;;;;;;;;;;;;;;4.30;76.33;98280.15;108343;1274;22505;-71
2022/04/21 05:06:40;;;;;;;;;;;;;;;4.37;76.87;98285.52;108522;1274;24292;-71
2022/04/21 05:09:11;;;;;;;;;;;;;;;4.43;77.46;98288.86;108514;1274;22508;-70
2022/04/21 05:11:38;;;;;;;;;;;;;;;4.49;77.77;98286.14;108534;1274;25359;-73
2022/04/21 05:14:07;;;;;;;;;;;;;;;4.54;77.18;98279.02;108561;1274;22665;-71
2022/04/21 05:16:36;;;;;;;;;;;;;;;4.59;77.24;98283.11;108537;1274;22598;-71
2022/04/21 05:19:04;;;;;;;;;;;;;;;4.63;76.93;98281.38;108527;1274;23107;-72
2022/04/21 05:21:32;;;;;;;;;;;;;;;4.68;76.63;98277.66;108347;1274;22666;-71
2022/04/21 05:24:02;;;;;;;;;;;;;;;4.78;76.30;98272.72;108314;1274;22681;-71
2022/04/21 05:26:29;;;;;;;;;;;;;;;4.90;76.77;98270.09;108331;1274;22543;-71
2022/04/21 05:28:57;;;;;;;;;;;;;;;5.00;77.27;98267.71;108290;1274;24302;-71
2022/04/21 05:31:26;;;;;;;;;;;;;;;5.10;77.66;98271.55;108279;1274;22616;-71
2022/04/21 05:33:54;;;;;;;;;;;;;;;5.17;77.54;98275.46;108257;1274;22606;-70
2022/04/21 05:36:21;;;;;;;;;;;;;;;5.32;77.37;98278.73;108332;1274;22533;-71
2022/04/21 05:38:51;;;;;;;;;;;;;;;5.47;76.96;98281.76;108304;1274;22567;-70
2022/04/21 05:41:19;;;;;;;;;;;;;;;5.62;76.90;98279.45;108323;1274;22527;-71
2022/04/21 05:43:47;;;;;;;;;;;;;;;5.73;76.56;98278.53;108317;1274;22542;-70
2022/04/21 05:46:15;;;;;;;;;;;;;;;5.82;76.32;98279.09;108530;1271;22749;-70
2022/04/21 05:48:42;;;;;;;;;;;;;;;5.91;76.09;98277.96;108609;1271;24334;-70
2022/04/21 05:51:10;;;;;;;;;;;;;;;6.07;75.97;98281.15;108564;1271;22625;-71
2022/04/21 05:53:38;;;;;;;;;;;;;;;6.22;75.71;98278.59;108566;1271;24338;-70
2022/04/21 05:56:06;;;;;;;;;;;;;;;6.37;75.69;98280.39;108535;1271;23199;-69
2022/04/21 05:58:36;;;;;;;;;;;;;;;6.56;75.75;98279.88;108564;1271;25464;-70
2022/04/21 06:01:10;;;;;;;;;;;;;;;6.76;75.43;98282.39;108523;1271;22515;-72
2022/04/21 06:03:41;;;;;;;;;;;;;;;6.99;75.25;98279.55;108591;1271;22594;-73
2022/04/21 06:06:09;;;;;;;;;;;;;;;7.19;75.10;98275.33;108569;1271;22604;-70
2022/04/21 06:08:36;;;;;;;;;;;;;;;7.35;74.97;98274.40;108509;1271;25445;-72
2022/04/21 06:11:03;;;;;;;;;;;;;;;7.48;74.29;98276.94;108509;1271;22657;-70
2022/04/21 06:13:30;;;;;;;;;;;;;;;7.62;74.20;98282.66;108511;1271;22506;-73
2022/04/21 06:15:58;;;;;;;;;;;;;;;7.72;73.74;98286.73;108502;1271;25723;-70
2022/04/21 06:18:25;;;;;;;;;;;;;;;7.81;73.80;98291.23;108523;1271;25365;-71
2022/04/21 06:20:53;;;;;;;;;;;;;;;7.86;73.25;98289.92;108474;1271;22532;-71
2022/04/21 06:23:21;;;;;;;;;;;;;;;7.90;72.51;98290.36;108502;1271;22705;-74
2022/04/21 06:25:47;;;;;;;;;;;;;;;7.99;71.42;98287.59;108834;1270;22511;-74
2022/04/21 06:28:15;;;;;;;;;;;;;;;8.06;71.63;98285.40;108549;1271;25368;-71
2022/04/21 06:30:42;;;;;;;;;;;;;;;8.16;71.05;98285.70;108546;1271;24251;-71
2022/04/21 06:33:09;;;;;;;;;;;;;;;8.14;70.91;98289.07;108486;1271;25535;-74
2022/04/21 06:35:36;;;;;;;;;;;;;;;8.22;70.24;98289.81;108474;1271;22692;-71
2022/04/21 06:38:03;;;;;;;;;;;;;;;8.22;70.03;98286.02;108525;1271;22553;-71
2022/04/21 06:40:30;;;;;;;;;;;;;;;8.28;70.27;98285.29;108539;1271;25386;-71
2022/04/21 06:43:02;;;;;;;;;;;;;;;8.37;69.92;98281.14;108454;1271;22630;-71
2022/04/21 06:48:15;;;;;;;;;;;;;;;8.52;69.03;98283.84;108479;1271;22544;-70
2022/04/21 06:50:41;;;;;;;;;;;;;;;8.57;68.93;98280.91;108482;1271;22685;-72
2022/04/21 06:53:09;;;;;;;;;;;;;;;8.60;67.87;98276.89;108527;1271;22717;-71
2022/04/21 06:55:36;;;;;;;;;;;;;;;8.66;68.45;98276.35;108498;1271;22521;-71
2022/04/21 06:58:03;;;;;;;;;;;;;;;8.73;68.12;98279.77;108377;1271;22711;-71
2022/04/21 07:00:30;;;;;;;;;;;;;;;8.82;68.23;98277.79;108518;1271;23442;-72
2022/04/21 07:02:58;;;;;;;;;;;;;;;8.88;67.61;98279.48;108509;1271;22672;-71
2022/04/21 07:05:25;;;;;;;;;;;;;;;8.95;67.58;98279.90;108522;1271;22626;-72
2022/04/21 07:07:52;;;;;;;;;;;;;;;8.96;66.82;98278.23;108511;1271;22521;-72
2022/04/21 07:10:20;;;;;;;;;;;;;;;9.08;67.15;98279.77;108507;1271;22511;-72
2022/04/21 07:12:47;;;;;;;;;;;;;;;9.18;66.65;98286.20;108548;1271;22559;-72
2022/04/21 07:15:14;;;;;;;;;;;;;;;9.24;65.88;98286.31;108574;1271;22593;-72
2022/04/21 07:17:42;;;;;;;;;;;;;;;9.31;65.15;98286.89;108526;1271;22703;-72
2022/04/21 07:20:10;;;;;;;;;;;;;;;9.40;65.50;98293.09;108477;1271;24051;-71
2022/04/21 07:22:37;;;;;;;;;;;;;;;9.52;65.03;98294.38;108502;1271;22542;-72
2022/04/21 07:25:05;;;;;;;;;;;;;;;9.60;64.57;98291.95;108494;1271;22656;-73
2022/04/21 07:27:32;;;;;;;;;;;;;;;9.68;63.94;98292.96;108542;1271;22519;-71
2022/04/21 07:30:00;;;;;;;;;;;;;;;9.72;64.16;98294.09;108528;1271;22656;-70
2022/04/21 07:32:27;;;;;;;;;;;;;;;9.83;64.30;98293.06;108505;1271;22601;-71
2022/04/21 07:34:54;;;;;;;;;;;;;;;9.94;64.08;98287.95;108522;1271;22516;-71
2022/04/21 07:37:21;;;;;;;;;;;;;;;10.05;63.31;98288.20;108526;1271;22680;-70
2022/04/21 07:39:48;;;;;;;;;;;;;;;10.20;63.54;98291.73;108528;1271;22499;-71
2022/04/21 07:42:15;;;;;;;;;;;;;;;10.28;61.80;98289.64;108530;1271;23147;-70
2022/04/21 07:44:42;;;;;;;;;;;;;;;10.41;62.27;98289.59;108508;1271;22528;-70
2022/04/21 07:47:08;;;;;;;;;;;;;;;10.63;62.00;98289.44;108538;1271;22593;-71
2022/04/21 07:49:48;;;;;;;;;;;;;;;10.85;61.53;98293.73;108529;1271;23114;-70
2022/04/21 07:55:13;;;;;;;;;;;;;;;11.19;60.98;98296.33;108535;1271;22537;-73
2022/04/21 07:57:41;;;;;;;;;;;;;;;11.28;59.05;98293.92;108514;1271;24224;-70
2022/04/21 08:00:08;;;;;;;;;;;;;;;11.44;59.27;98296.27;108503;1271;22619;-70
2022/04/21 08:02:36;;;;;;;;;;;;;;;11.64;59.59;98296.10;108564;1271;22697;-70
2022/04/21 08:05:03;;;;;;;;;;;;;;;11.74;58.22;98303.27;108506;1271;23236;-69
2022/04/21 08:07:31;;;;;;;;;;;;;;;11.88;58.41;98305.52;108539;1271;22537;-72
2022/04/21 08:09:58;;;;;;;;;;;;;;;11.96;57.68;98307.73;108496;1271;22558;-72
2022/04/21 08:12:25;;;;;;;;;;;;;;;11.98;57.12;98306.47;108516;1271;22508;-71
2022/04/21 08:14:52;;;;;;;;;;;;;;;12.04;56.45;98308.13;108509;1271;22662;-71
2022/04/21 08:17:19;;;;;;;;;;;;;;;12.20;57.38;98302.17;108597;1271;25459;-71
2022/04/21 08:19:46;;;;;;;;;;;;;;;12.29;56.81;98301.81;108525;1271;22724;-73
2022/04/21 08:22:13;;;;;;;;;;;;;;;12.34;56.69;98301.27;108521;1270;24418;-70
2022/04/21 08:32:56;;;;;;;;;;;;;;;12.20;55.44;98305.16;108517;1271;22543;-71
2022/04/21 08:35:23;;;;;;;;;;;;;;;12.31;55.14;98307.10;108512;1271;22512;-70
2022/04/21 08:37:50;;;;;;;;;;;;;;;12.44;55.43;98301.21;108558;1271;22547;-71
2022/04/21 08:40:18;;;;;;;;;;;;;;;12.50;54.97;98299.46;108567;1271;22515;-71
2022/04/21 08:42:44;;;;;;;;;;;;;;;12.55;55.17;98299.79;108529;1271;22589;-70
2022/04/21 08:45:13;;;;;;;;;;;;;;;12.67;55.22;98290.85;108501;1271;22689;-70
2022/04/21 08:47:42;;;;;;;;;;;;;;;12.78;55.31;98292.74;108492;1271;22671;-72
2022/04/21 08:50:12;;;;;;;;;;;;;;;12.92;54.67;98293.71;108485;1270;24494;-70
2022/04/21 08:52:40;;;;;;;;;;;;;;;13.14;53.91;98290.05;108547;1271;23084;-70
2022/04/21 08:55:08;;;;;;;;;;;;;;;13.14;52.34;98288.76;108521;1271;22630;-71
2022/04/21 08:57:38;;;;;;;;;;;;;;;13.21;53.49;98287.53;108488;1271;22860;-72
2022/04/21 09:00:07;;;;;;;;;;;;;;;13.42;52.20;98285.08;108470;1271;25512;-72
2022/04/21 09:02:34;;;;;;;;;;;;;;;13.51;52.31;98285.76;108624;1271;22681;-71
2022/04/21 09:05:02;;;;;;;;;;;;;;;13.62;51.35;98285.18;108476;1271;22545;-71
2022/04/21 09:07:29;;;;;;;;;;;;;;;13.61;51.02;98284.41;108523;1271;25537;-71
2022/04/21 09:10:04;;;;;;;;;;;;;;;13.65;51.62;98284.80;108519;1271;25433;-71
2022/04/21 09:12:31;;;;;;;;;;;;;;;13.71;51.21;98282.73;108551;1271;24252;-72
2022/04/21 09:14:58;;;;;;;;;;;;;;;13.67;49.45;98278.64;108514;1271;22511;-74
2022/04/21 09:17:24;;;;;;;;;;;;;;;13.64;50.78;98275.94;108483;1271;22506;-73
2022/04/21 09:19:55;;;;;;;;;;;;;;;13.58;49.74;98277.20;108558;1271;22532;-72
2022/04/21 09:22:23;;;;;;;;;;;;;;;13.63;49.78;98273.95;108661;1271;22680;-73
2022/04/21 09:24:53;;;;;;;;;;;;;;;13.73;51.06;98276.20;108534;1271;22532;-73
2022/04/21 09:27:20;;;;;;;;;;;;;;;13.88;49.44;98272.48;108463;1271;22547;-72
2022/04/21 09:29:48;;;;;;;;;;;;;;;14.12;50.20;98270.67;108513;1271;22664;-75
2022/04/21 09:32:17;;;;;;;;;;;;;;;14.26;49.33;98270.64;108489;1271;22593;-72
2022/04/21 09:34:50;;;;;;;;;;;;;;;14.32;49.32;98267.33;108524;1271;25427;-71
2022/04/21 09:37:20;;;;;;;;;;;;;;;14.35;47.90;98264.51;108543;1271;22617;-71
2022/04/21 09:39:51;;;;;;;;;;;;;;;14.36;48.61;98267.73;108543;1271;22682;-73
2022/04/21 09:42:28;;;;;;;;;;;;;;;14.36;47.98;98262.98;108494;1271;22572;-72
2022/04/21 09:47:50;;;;;;;;;;;;;;;14.33;49.05;98258.67;108520;1271;22589;-71
2022/04/21 09:50:17;;;;;;;;;;;;;;;14.39;47.99;98256.10;108538;1271;22673;-72
2022/04/21 09:52:47;;;;;;;;;;;;;;;14.33;47.25;98260.27;108513;1271;22543;-74
2022/04/21 09:55:20;;;;;;;;;;;;;;;14.24;47.79;98264.67;108539;1271;22673;-71
2022/04/21 09:57:49;;;;;;;;;;;;;;;14.40;48.31;98264.21;108510;1271;22575;-71
2022/04/21 10:00:20;;;;;;;;;;;;;;;14.54;48.19;98262.82;108546;1271;23029;-74
2022/04/21 10:02:50;;;;;;;;;;;;;;;14.67;47.87;98262.41;108513;1271;22551;-73
2022/04/21 10:05:17;;;;;;;;;;;;;;;14.82;48.10;98263.36;108530;1271;22593;-72
2022/04/21 10:07:45;;;;;;;;;;;;;;;14.98;47.56;98258.59;108511;1271;22528;-71
2022/04/21 10:10:12;;;;;;;;;;;;;;;15.19;47.77;98257.44;108538;1271;22646;-70
2022/04/21 10:12:39;;;;;;;;;;;;;;;15.15;44.41;98253.20;108613;1271;22532;-73
2022/04/21 10:15:07;;;;;;;;;;;;;;;15.31;47.47;98256.67;108740;1271;22559;-71
2022/04/21 10:17:34;;;;;;;;;;;;;;;15.38;46.56;98252.19;108651;1271;22584;-73
2022/04/21 10:20:01;;;;;;;;;;;;;;;15.48;46.52;98254.45;108588;1271;22604;-72
2022/04/21 10:22:31;;;;;;;;;;;;;;;15.46;45.75;98254.63;108638;1271;22509;-71
2022/04/21 10:24:58;;;;;;;;;;;;;;;15.37;43.64;98251.88;108749;1271;22520;-71
2022/04/21 10:27:34;;;;;;;;;;;;;;;15.40;45.70;98251.43;108721;1271;23944;-76
2022/04/21 10:30:02;;;;;;;;;;;;;;;15.52;45.85;98253.85;108773;1271;24491;-74
2022/04/21 10:32:45;;;;;;;;;;;;;;;15.71;46.06;98254.11;108757;1271;22528;-71
2022/04/21 10:35:19;;;;;;;;;;;;;;;15.87;45.35;98252.64;108801;1271;22530;-77
2022/04/21 10:37:46;;;;;;;;;;;;;;;15.93;44.23;98247.61;108759;1271;25338;-71
2022/04/21 10:40:20;;;;;;;;;;;;;;;16.06;41.67;98237.80;108761;1271;22588;-72
2022/04/21 10:42:53;;;;;;;;;;;;;;;16.09;41.84;98242.91;108801;1271;22505;-70
2022/04/21 10:45:24;;;;;;;;;;;;;;;16.11;41.16;98245.61;108747;1271;22509;-71
2022/04/21 10:48:05;;;;;;;;;;;;;;;16.14;41.36;98246.15;108786;1270;22535;-73
2022/04/21 10:50:32;;;;;;;;;;;;;;;16.31;42.02;98247.25;108803;1271;22619;-71
2022/04/21 10:58:33;;;;;;;;;;;;;;;16.49;41.28;98241.79;108790;1271;24346;-74
2022/04/21 11:01:07;;;;;;;;;;;;;;;16.65;41.18;98241.48;108811;1271;22614;-72
2022/04/21 11:03:34;;;;;;;;;;;;;;;16.73;40.86;98236.05;108779;1271;25346;-72
2022/04/21 11:06:05;;;;;;;;;;;;;;;16.74;40.54;98236.58;108771;1271;23840;-72
2022/04/21 11:08:32;;;;;;;;;;;;;;;16.80;40.39;98236.02;108794;1271;25374;-72
2022/04/21 11:10:59;;;;;;;;;;;;;;;16.84;39.95;98238.63;108801;1271;22554;-71
2022/04/21 11:13:41;;;;;;;;;;;;;;;16.91;39.95;98243.00;108777;1271;22528;-71
2022/04/21 11:16:08;;;;;;;;;;;;;;;16.91;40.09;98242.90;108812;1271;22555;-72
2022/04/21 11:18:35;;;;;;;;;;;;;;;16.96;40.32;98242.73;108768;1271;25291;-71
2022/04/21 11:21:26;;;;;;;;;;;;;;;16.82;39.60;98242.88;108770;1271;22502;-77
2022/04/21 11:23:53;;;;;;;;;;;;;;;16.51;40.11;98238.15;108790;1271;24247;-71
2022/04/21 11:26:28;;;;;;;;;;;;;;;16.47;40.67;98236.86;108805;1271;22536;-71
2022/04/21 11:29:00;;;;;;;;;;;;;;;16.40;40.91;98236.48;108596;1271;22527;-72
2022/04/21 11:31:27;;;;;;;;;;;;;;;16.21;41.14;98233.75;108633;1271;22608;-73
2022/04/21 11:33:58;;;;;;;;;;;;;;;16.08;41.39;98238.16;108782;1271;25440;-72
2022/04/21 11:36:33;;;;;;;;;;;;;;;16.00;41.04;98239.05;108783;1271;22534;-71
2022/04/21 11:39:04;;;;;;;;;;;;;;;15.93;40.84;98232.33;108674;1271;22520;-72
2022/04/21 11:41:32;;;;;;;;;;;;;;;15.92;41.51;98231.41;108777;1271;25215;-70
2022/04/21 11:44:00;;;;;;;;;;;;;;;15.97;41.17;98231.31;108813;1271;22531;-74
2022/04/21 11:46:27;;;;;;;;;;;;;;;15.87;41.55;98231.34;108703;1270;24259;-72
2022/04/21 11:49:00;;;;;;;;;;;;;;;15.97;41.14;98231.61;108726;1271;25429;-72
2022/04/21 11:51:28;;;;;;;;;;;;;;;15.87;41.37;98228.21;108801;1271;24223;-73
2022/04/21 11:53:55;;;;;;;;;;;;;;;15.83;41.33;98225.91;108777;1271;22521;-72
2022/04/21 11:56:22;;;;;;;;;;;;;;;15.74;41.09;98227.08;108819;1270;23905;-71
2022/04/21 11:58:49;;;;;;;;;;;;;;;15.75;41.57;98230.89;108531;1271;25502;-71
2022/04/21 12:06:56;;;;;;;;;;;;;;;15.27;41.44;98223.58;108587;1271;26217;-74
2022/04/21 12:09:25;;;;;;;;;;;;;;;15.32;41.79;98222.21;108556;1271;24280;-72
2022/04/21 12:11:53;;;;;;;;;;;;;;;15.34;41.37;98224.79;108542;1271;24425;-73
2022/04/21 12:14:21;;;;;;;;;;;;;;;15.33;41.01;98224.31;108559;1271;22541;-71
2022/04/21 12:16:54;;;;;;;;;;;;;;;15.37;41.34;98224.02;108587;1271;22534;-72
2022/04/21 12:19:33;;;;;;;;;;;;;;;15.55;41.88;98219.19;108565;1271;22644;-72
2022/04/21 12:22:00;;;;;;;;;;;;;;;15.57;40.91;98219.44;108557;1270;22625;-71
2022/04/21 12:24:31;;;;;;;;;;;;;;;15.66;41.42;98215.62;108417;1271;22975;-71
2022/04/21 12:26:59;;;;;;;;;;;;;;;15.57;40.01;98216.04;108586;1271;23360;-70
2022/04/21 12:29:29;;;;;;;;;;;;;;;15.52;40.92;98214.95;108578;1271;22859;-70
2022/04/21 12:31:56;;;;;;;;;;;;;;;15.54;41.24;98213.38;108564;1271;22503;-70
2022/04/21 12:34:26;;;;;;;;;;;;;;;15.58;41.32;98215.13;108568;1271;25676;-74
2022/04/21 12:37:00;;;;;;;;;;;;;;;15.75;41.50;98216.14;108571;1271;22551;-71
2022/04/21 12:39:28;;;;;;;;;;;;;;;15.96;40.88;98216.42;108595;1271;25260;-71
2022/04/21 12:41:56;;;;;;;;;;;;;;;15.86;40.34;98218.59;108589;1271;22677;-71
2022/04/21 12:44:25;;;;;;;;;;;;;;;15.95;40.72;98216.87;108595;1271;22599;-71
2022/04/21 12:47:04;;;;;;;;;;;;;;;16.01;39.86;98216.31;108524;1271;25499;-71
2022/04/21 12:49:49;;;;;;;;;;;;;;;16.03;40.27;98214.88;108565;1271;22592;-74
2022/04/21 12:52:33;;;;;;;;;;;;;;;16.05;38.92;98212.42;108588;1271;24208;-71
2022/04/21 12:55:01;;;;;;;;;;;;;;;16.07;38.98;98209.29;108565;1270;25232;-72
2022/04/21 12:57:28;;;;;;;;;;;;;;;15.98;39.61;98209.77;108570;1271;24428;-72
2022/04/21 12:59:55;;;;;;;;;;;;;;;16.08;39.89;98208.45;108555;1271;22598;-73
2022/04/21 13:02:23;;;;;;;;;;;;;;;16.30;39.97;98206.04;108585;1271;24221;-73
2022/04/21 13:04:50;;;;;;;;;;;;;;;16.31;38.58;98202.77;108599;1271;22551;-72
2022/04/21 13:07:16;;;;;;;;;;;;;;;16.23;38.96;98197.39;108548;1271;22527;-73
2022/04/21 13:09:43;;;;;;;;;;;;;;;16.13;39.76;98205.56;108552;1271;22528;-73
2022/04/21 13:12:10;;;;;;;;;;;;;;;16.28;39.69;98207.13;108582;1271;22509;-73
2022/04/21 13:14:37;;;;;;;;;;;;;;;16.34;39.06;98205.27;108587;1271;22512;-72
2022/04/21 13:17:04;;;;;;;;;;;;;;;16.28;39.37;98206.80;108610;1271;22575;-72
2022/04/21 13:19:32;;;;;;;;;;;;;;;16.27;39.47;98210.41;108597;1271;22735;-73
2022/04/21 13:22:00;;;;;;;;;;;;;;;16.26;39.26;98207.63;108566;1271;22628;-73
2022/04/21 13:24:27;;;;;;;;;;;;;;;16.20;39.44;98211.18;108557;1271;22508;-74
2022/04/21 13:26:55;;;;;;;;;;;;;;;16.09;39.73;98211.76;108567;1271;22585;-71
2022/04/21 13:29:22;;;;;;;;;;;;;;;16.04;39.98;98213.88;108618;1271;22534;-71
2022/04/21 13:34:36;;;;;;;;;;;;;;;15.89;39.90;98208.67;108549;1271;22516;-72
2022/04/21 13:37:03;;;;;;;;;;;;;;;15.75;40.15;98213.55;108570;1271;22726;-72
2022/04/21 13:39:31;;;;;;;;;;;;;;;15.63;40.29;98214.62;108582;1271;23042;-71
2022/04/21 13:41:58;;;;;;;;;;;;;;;15.63;40.28;98211.86;108614;1271;22524;-70
2022/04/21 13:44:25;;;;;;;;;;;;;;;15.61;39.96;98213.98;108599;1271;22557;-74